^^
Saratoga-Weather Station Historical Data
Daily Summary for October 1, 2020 Units:  Both    English   Metric
Daily Weekly Monthly Yearly Custom
  High: Low: Average:
Temperature: 60.3 °F /  15.7 °C 47.8 °F /  8.8 °C 53.8 °F /  12.1 °C
Dew Point: 56.3 °F /  13.5 °C 46.4 °F /  8 °C 52 °F /  11.1 °C
Humidity: 97% 82% 94%
Wind Speed: 6mph /  9.7km/h - 0.7mph /  1.1km/h
Wind Gust: 10mph /  16.1km/h - -
Wind- - SE
Pressure: 29.8 in /  1009.1 hPa 29.5 in /  1000.3 hPa -
Precipitation: 0.22 in /  5.6 mm    
Historical Graphs
 
 
Tabular Data for October 1, 2020
Time Temperature Dew Point Pressure Wind Wind Speed Wind Gust Humidity Rainfall Rate (Hourly) solar
00:03 53.4 °F /  11.9 °C 52.3 °F /  11.3 °C 29.8in /  1009.1hPa Calm     96% 0in /  0.0mm 0 W/m2
00:08 53.8 °F /  12.1 °C 52.7 °F /  11.5 °C 29.8in /  1009.1hPa Calm     96% 0in /  0.0mm 0 W/m2
00:13 54 °F /  12.2 °C 52.9 °F /  11.6 °C 29.8in /  1009.1hPa Calm     96% 0in /  0.0mm 0 W/m2
00:18 54 °F /  12.2 °C 52.9 °F /  11.6 °C 29.8in /  1009.1hPa Calm     96% 0in /  0.0mm 0 W/m2
00:23 54 °F /  12.2 °C 52.9 °F /  11.6 °C 29.8in /  1008.8hPa Calm     96% 0in /  0.0mm 0 W/m2
00:28 54 °F /  12.2 °C 52.9 °F /  11.6 °C 29.8in /  1008.8hPa Calm     96% 0in /  0.0mm 0 W/m2
00:33 54.1 °F /  12.3 °C 53.1 °F /  11.7 °C 29.8in /  1008.5hPa Calm     96% 0in /  0.0mm 0 W/m2
00:38 54 °F /  12.2 °C 52.9 °F /  11.6 °C 29.8in /  1008.5hPa Calm     96% 0in /  0.0mm 0 W/m2
00:43 54 °F /  12.2 °C 52.9 °F /  11.6 °C 29.8in /  1008.5hPa Calm     96% 0in /  0.0mm 0 W/m2
00:48 53.8 °F /  12.1 °C 52.7 °F /  11.5 °C 29.8in /  1008.5hPa Calm     96% 0in /  0.0mm 0 W/m2
00:53 53.6 °F /  12 °C 52.5 °F /  11.4 °C 29.8in /  1008.5hPa Calm     96% 0in /  0.0mm 0 W/m2
00:58 53.4 °F /  11.9 °C 52.3 °F /  11.3 °C 29.8in /  1008.5hPa Calm     96% 0in /  0.0mm 0 W/m2
01:03 53.2 °F /  11.8 °C 52.2 °F /  11.2 °C 29.8in /  1008.5hPa Calm     96% 0in /  0.0mm 0 W/m2
01:08 53.2 °F /  11.8 °C 52.2 °F /  11.2 °C 29.8in /  1008.5hPa Calm     96% 0in /  0.0mm 0 W/m2
01:13 53.1 °F /  11.7 °C 52 °F /  11.1 °C 29.8in /  1008.5hPa Calm     96% 0in /  0.0mm 0 W/m2
01:18 53.1 °F /  11.7 °C 52 °F /  11.1 °C 29.8in /  1008.1hPa Calm     96% 0in /  0.0mm 0 W/m2
01:23 52.9 °F /  11.6 °C 51.8 °F /  11 °C 29.8in /  1008.1hPa Calm     96% 0in /  0.0mm 0 W/m2
01:28 52.9 °F /  11.6 °C 51.8 °F /  11 °C 29.8in /  1008.1hPa Calm     96% 0in /  0.0mm 0 W/m2
01:33 52.7 °F /  11.5 °C 51.6 °F /  10.9 °C 29.8in /  1008.1hPa Calm     96% 0in /  0.0mm 0 W/m2
01:38 52.5 °F /  11.4 °C 51.4 °F /  10.8 °C 29.8in /  1008.1hPa Calm     96% 0in /  0.0mm 0 W/m2
01:43 52.5 °F /  11.4 °C 51.4 °F /  10.8 °C 29.8in /  1008.1hPa Calm     96% 0in /  0.0mm 0 W/m2
01:48 52.5 °F /  11.4 °C 51.4 °F /  10.8 °C 29.8in /  1008.1hPa Calm     96% 0in /  0.0mm 0 W/m2
01:53 52.5 °F /  11.4 °C 51.4 °F /  10.8 °C 29.8in /  1007.8hPa Calm     96% 0in /  0.0mm 0 W/m2
01:58 52.5 °F /  11.4 °C 51.4 °F /  10.8 °C 29.8in /  1007.8hPa Calm     96% 0in /  0.0mm 0 W/m2
02:03 52.5 °F /  11.4 °C 51.4 °F /  10.8 °C 29.8in /  1007.8hPa Calm     96% 0in /  0.0mm 0 W/m2
02:08 52.5 °F /  11.4 °C 51.4 °F /  10.8 °C 29.8in /  1007.8hPa Calm     96% 0in /  0.0mm 0 W/m2
02:13 52.7 °F /  11.5 °C 51.8 °F /  11 °C 29.8in /  1007.8hPa Calm     97% 0in /  0.0mm 0 W/m2
02:18 52.7 °F /  11.5 °C 51.8 °F /  11 °C 29.8in /  1007.8hPa Calm     97% 0in /  0.0mm 0 W/m2
02:23 52.7 °F /  11.5 °C 51.8 °F /  11 °C 29.8in /  1007.8hPa Calm     97% 0in /  0.0mm 0 W/m2
02:28 52.5 °F /  11.4 °C 51.4 °F /  10.8 °C 29.8in /  1007.5hPa Calm     96% 0in /  0.0mm 0 W/m2
02:33 52.3 °F /  11.3 °C 51.3 °F /  10.7 °C 29.8in /  1007.5hPa Calm     96% 0in /  0.0mm 0 W/m2
02:38 52.3 °F /  11.3 °C 51.3 °F /  10.7 °C 29.8in /  1007.5hPa Calm     96% 0in /  0.0mm 0 W/m2
02:43 52.2 °F /  11.2 °C 51.1 °F /  10.6 °C 29.8in /  1007.5hPa Calm     96% 0in /  0.0mm 0 W/m2
02:48 52.2 °F /  11.2 °C 51.1 °F /  10.6 °C 29.7in /  1007.1hPa Calm     96% 0in /  0.0mm 0 W/m2
02:53 52 °F /  11.1 °C 50.9 °F /  10.5 °C 29.7in /  1007.1hPa Calm     96% 0in /  0.0mm 0 W/m2
02:58 52 °F /  11.1 °C 50.9 °F /  10.5 °C 29.7in /  1007.1hPa Calm     96% 0in /  0.0mm 0 W/m2
03:03 52 °F /  11.1 °C 50.9 °F /  10.5 °C 29.7in /  1007.1hPa Calm     96% 0in /  0.0mm 0 W/m2
03:08 52 °F /  11.1 °C 51.1 °F /  10.6 °C 29.7in /  1006.8hPa Calm     97% 0in /  0.0mm 0 W/m2
03:13 52 °F /  11.1 °C 51.1 °F /  10.6 °C 29.7in /  1006.8hPa Calm     97% 0in /  0.0mm 0 W/m2
03:18 52 °F /  11.1 °C 51.1 °F /  10.6 °C 29.7in /  1006.8hPa Calm     97% 0in /  0.0mm 0 W/m2
03:23 52 °F /  11.1 °C 51.1 °F /  10.6 °C 29.7in /  1006.8hPa Calm     97% 0in /  0.0mm 0 W/m2
03:28 51.8 °F /  11 °C 50.7 °F /  10.4 °C 29.7in /  1006.4hPa Calm     96% 0in /  0.0mm 0 W/m2
03:33 51.6 °F /  10.9 °C 50.5 °F /  10.3 °C 29.7in /  1006.4hPa Calm     96% 0in /  0.0mm 0 W/m2
03:38 51.4 °F /  10.8 °C 50.4 °F /  10.2 °C 29.7in /  1006.4hPa Calm     96% 0in /  0.0mm 0 W/m2
03:43 51.3 °F /  10.7 °C 50.2 °F /  10.1 °C 29.7in /  1006.4hPa Calm     96% 0in /  0.0mm 0 W/m2
03:48 51.3 °F /  10.7 °C 50.2 °F /  10.1 °C 29.7in /  1006.4hPa Calm     96% 0in /  0.0mm 0 W/m2
03:53 51.1 °F /  10.6 °C 50 °F /  10 °C 29.7in /  1006.4hPa Calm     96% 0in /  0.0mm 0 W/m2
03:58 51.1 °F /  10.6 °C 50 °F /  10 °C 29.7in /  1006.1hPa Calm     96% 0in /  0.0mm 0 W/m2
04:03 50.9 °F /  10.5 °C 49.8 °F /  9.9 °C 29.7in /  1006.1hPa Calm     96% 0in /  0.0mm 0 W/m2
04:08 50.9 °F /  10.5 °C 49.8 °F /  9.9 °C 29.7in /  1006.1hPa Calm     96% 0in /  0.0mm 0 W/m2
04:13 50.9 °F /  10.5 °C 49.8 °F /  9.9 °C 29.7in /  1006.1hPa Calm     96% 0in /  0.0mm 0 W/m2
04:18 50.9 °F /  10.5 °C 49.8 °F /  9.9 °C 29.7in /  1005.8hPa Calm     96% 0in /  0.0mm 0 W/m2
04:23 51.1 °F /  10.6 °C 50.2 °F /  10.1 °C 29.7in /  1005.8hPa Calm     97% 0in /  0.0mm 0 W/m2
04:28 51.1 °F /  10.6 °C 50.2 °F /  10.1 °C 29.7in /  1005.8hPa Calm     97% 0in /  0.0mm 0 W/m2
04:33 51.3 °F /  10.7 °C 50.4 °F /  10.2 °C 29.7in /  1005.8hPa Calm     97% 0in /  0.0mm 0 W/m2
04:38 51.3 °F /  10.7 °C 50.4 °F /  10.2 °C 29.7in /  1005.4hPa Calm     97% 0in /  0.0mm 0 W/m2
04:43 51.3 °F /  10.7 °C 50.4 °F /  10.2 °C 29.7in /  1005.4hPa Calm     97% 0in /  0.0mm 0 W/m2
04:48 51.3 °F /  10.7 °C 50.4 °F /  10.2 °C 29.7in /  1005.4hPa Calm     97% 0in /  0.0mm 0 W/m2
04:53 51.3 °F /  10.7 °C 50.4 °F /  10.2 °C 29.7in /  1005.4hPa Calm     97% 0in /  0.0mm 0 W/m2
04:58 51.3 °F /  10.7 °C 50.4 °F /  10.2 °C 29.7in /  1005.1hPa Calm     97% 0in /  0.0mm 0 W/m2
05:03 51.3 °F /  10.7 °C 50.4 °F /  10.2 °C 29.7in /  1005.1hPa Calm     97% 0in /  0.0mm 0 W/m2
05:08 51.3 °F /  10.7 °C 50.4 °F /  10.2 °C 29.7in /  1005.1hPa Calm     97% 0in /  0.0mm 0 W/m2
05:13 51.3 °F /  10.7 °C 50.4 °F /  10.2 °C 29.7in /  1005.1hPa Calm     97% 0in /  0.0mm 0 W/m2
05:18 51.3 °F /  10.7 °C 50.4 °F /  10.2 °C 29.7in /  1005.1hPa Calm     97% 0in /  0.0mm 0 W/m2
05:23 51.3 °F /  10.7 °C 50.4 °F /  10.2 °C 29.7in /  1005.1hPa Calm     97% 0in /  0.0mm 0 W/m2
05:28 51.3 °F /  10.7 °C 50.4 °F /  10.2 °C 29.7in /  1004.7hPa Calm     97% 0in /  0.0mm 0 W/m2
05:33 51.3 °F /  10.7 °C 50.4 °F /  10.2 °C 29.7in /  1004.7hPa Calm     97% 0in /  0.0mm 0 W/m2
05:38 51.3 °F /  10.7 °C 50.4 °F /  10.2 °C 29.7in /  1004.7hPa Calm     97% 0in /  0.0mm 0 W/m2
05:43 51.3 °F /  10.7 °C 50.4 °F /  10.2 °C 29.7in /  1004.7hPa Calm     97% 0in /  0.0mm 0 W/m2
05:48 51.3 °F /  10.7 °C 50.4 °F /  10.2 °C 29.7in /  1004.7hPa Calm     97% 0in /  0.0mm 0 W/m2
05:53 51.3 °F /  10.7 °C 50.4 °F /  10.2 °C 29.7in /  1004.7hPa Calm     97% 0in /  0.0mm 0 W/m2
05:58 51.1 °F /  10.6 °C 50.2 °F /  10.1 °C 29.7in /  1004.7hPa Calm     97% 0in /  0.0mm 0 W/m2
06:03 51.1 °F /  10.6 °C 50.2 °F /  10.1 °C 29.7in /  1004.4hPa Calm     97% 0in /  0.0mm 0 W/m2
06:08 51.1 °F /  10.6 °C 50.2 °F /  10.1 °C 29.7in /  1004.4hPa Calm     97% 0in /  0.0mm 0 W/m2
06:13 51.1 °F /  10.6 °C 50.2 °F /  10.1 °C 29.7in /  1004.4hPa Calm     97% 0in /  0.0mm 0 W/m2
06:18 51.1 °F /  10.6 °C 50.2 °F /  10.1 °C 29.7in /  1004.4hPa Calm     97% 0in /  0.0mm 0 W/m2
06:23 50.9 °F /  10.5 °C 50 °F /  10 °C 29.7in /  1004.4hPa Calm     97% 0in /  0.0mm 0 W/m2
06:28 50.9 °F /  10.5 °C 50 °F /  10 °C 29.7in /  1004.1hPa Calm     97% 0in /  0.0mm 0 W/m2
06:33 50.7 °F /  10.4 °C 49.8 °F /  9.9 °C 29.7in /  1004.1hPa Calm     97% 0in /  0.0mm 0 W/m2
06:38 50.7 °F /  10.4 °C 49.8 °F /  9.9 °C 29.7in /  1004.1hPa Calm     97% 0in /  0.0mm 0 W/m2
06:43 50.7 °F /  10.4 °C 49.8 °F /  9.9 °C 29.7in /  1004.1hPa Calm     97% 0in /  0.0mm 0 W/m2
06:48 50.7 °F /  10.4 °C 49.8 °F /  9.9 °C 29.7in /  1004.1hPa Calm     97% 0in /  0.0mm 0 W/m2
06:53 50.7 °F /  10.4 °C 49.8 °F /  9.9 °C 29.7in /  1004.1hPa Calm     97% 0in /  0.0mm 0 W/m2
06:58 50.5 °F /  10.3 °C 49.6 °F /  9.8 °C 29.7in /  1004.1hPa Calm     97% 0in /  0.0mm 0 W/m2
07:03 50.5 °F /  10.3 °C 49.6 °F /  9.8 °C 29.6in /  1003.7hPa Calm     97% 0in /  0.0mm 0 W/m2
07:08 50.5 °F /  10.3 °C 49.6 °F /  9.8 °C 29.6in /  1003.7hPa Calm     97% 0in /  0.0mm 0 W/m2
07:13 50.5 °F /  10.3 °C 49.6 °F /  9.8 °C 29.6in /  1003.7hPa Calm     97% 0in /  0.0mm 0 W/m2
07:18 50.5 °F /  10.3 °C 49.6 °F /  9.8 °C 29.6in /  1003.7hPa Calm     97% 0in /  0.0mm 0 W/m2
07:23 50.5 °F /  10.3 °C 49.6 °F /  9.8 °C 29.6in /  1003.7hPa Calm     97% 0in /  0.0mm 0 W/m2
07:28 50.5 °F /  10.3 °C 49.6 °F /  9.8 °C 29.6in /  1003.7hPa Calm     97% 0in /  0.0mm 0 W/m2
07:33 50.5 °F /  10.3 °C 49.6 °F /  9.8 °C 29.6in /  1003.7hPa Calm     97% 0in /  0.0mm 7 W/m2
07:38 50.7 °F /  10.4 °C 49.8 °F /  9.9 °C 29.6in /  1003.7hPa Calm     97% 0in /  0.0mm 0 W/m2
07:43 50.7 °F /  10.4 °C 49.8 °F /  9.9 °C 29.6in /  1003.4hPa Calm     97% 0in /  0.0mm 0 W/m2
07:48 50.7 °F /  10.4 °C 49.8 °F /  9.9 °C 29.6in /  1003.7hPa Calm     97% 0in /  0.0mm 0 W/m2
07:53 50.7 °F /  10.4 °C 49.8 °F /  9.9 °C 29.6in /  1003.4hPa Calm     97% 0in /  0.0mm 5 W/m2
07:58 50.7 °F /  10.4 °C 49.8 °F /  9.9 °C 29.6in /  1003.4hPa Calm     97% 0in /  0.0mm 7 W/m2
08:03 50.7 °F /  10.4 °C 49.8 °F /  9.9 °C 29.6in /  1003.4hPa Calm     97% 0in /  0.0mm 9 W/m2
08:08 51.1 °F /  10.6 °C 50.2 °F /  10.1 °C 29.6in /  1003.4hPa Calm     97% 0in /  0.0mm 12 W/m2
08:13 51.1 °F /  10.6 °C 50.2 °F /  10.1 °C 29.6in /  1003.4hPa Calm     97% 0in /  0.0mm 21 W/m2
08:18 51.3 °F /  10.7 °C 50.4 °F /  10.2 °C 29.6in /  1003.4hPa Calm     97% 0in /  0.0mm 23 W/m2
08:23 51.3 °F /  10.7 °C 50.4 °F /  10.2 °C 29.6in /  1003.4hPa Calm     97% 0in /  0.0mm 25 W/m2
08:28 51.4 °F /  10.8 °C 50.5 °F /  10.3 °C 29.6in /  1003.0hPa Calm     97% 0in /  0.0mm 30 W/m2
08:33 51.4 °F /  10.8 °C 50.5 °F /  10.3 °C 29.6in /  1003.0hPa Calm   2mph /  3.2km/h 97% 0in /  0.0mm 28 W/m2
08:38 51.6 °F /  10.9 °C 50.7 °F /  10.4 °C 29.6in /  1003.0hPa ESE 2mph /  3.2km/h 3mph /  4.8km/h 97% 0in /  0.0mm 28 W/m2
08:43 51.8 °F /  11 °C 50.9 °F /  10.5 °C 29.6in /  1003.0hPa Calm   2mph /  3.2km/h 97% 0in /  0.0mm 33 W/m2
08:48 51.8 °F /  11 °C 50.9 °F /  10.5 °C 29.6in /  1003.0hPa East 0.9mph /  1.4km/h 3mph /  4.8km/h 97% 0in /  0.0mm 35 W/m2
08:53 52 °F /  11.1 °C 51.1 °F /  10.6 °C 29.6in /  1003.0hPa Calm     97% 0in /  0.0mm 42 W/m2
08:58 52 °F /  11.1 °C 51.1 °F /  10.6 °C 29.6in /  1002.7hPa Calm     97% 0in /  0.0mm 49 W/m2
09:03 52 °F /  11.1 °C 51.1 °F /  10.6 °C 29.6in /  1002.7hPa Calm     97% 0in /  0.0mm 44 W/m2
09:08 52.2 °F /  11.2 °C 51.3 °F /  10.7 °C 29.6in /  1002.7hPa Calm   1mph /  1.6km/h 97% 0in /  0.0mm 42 W/m2
09:13 52.2 °F /  11.2 °C 51.3 °F /  10.7 °C 29.6in /  1002.7hPa Calm   2mph /  3.2km/h 97% 0in /  0.0mm 37 W/m2
09:18 52.3 °F /  11.3 °C 51.4 °F /  10.8 °C 29.6in /  1002.7hPa Calm   2mph /  3.2km/h 97% 0in /  0.0mm 39 W/m2
09:23 52.3 °F /  11.3 °C 51.4 °F /  10.8 °C 29.6in /  1002.7hPa Calm     97% 0in /  0.0mm 37 W/m2
09:28 52.3 °F /  11.3 °C 51.4 °F /  10.8 °C 29.6in /  1002.7hPa Calm   1mph /  1.6km/h 97% 0in /  0.0mm 49 W/m2
09:33 52.3 °F /  11.3 °C 51.4 °F /  10.8 °C 29.6in /  1002.7hPa NE 0.9mph /  1.4km/h 1mph /  1.6km/h 97% 0in /  0.0mm 49 W/m2
09:38 52.5 °F /  11.4 °C 51.6 °F /  10.9 °C 29.6in /  1002.7hPa NE 0.9mph /  1.4km/h 1mph /  1.6km/h 97% 0in /  0.0mm 49 W/m2
09:44 52.5 °F /  11.4 °C 51.6 °F /  10.9 °C 29.6in /  1002.7hPa NE 2mph /  3.2km/h 2mph /  3.2km/h 97% 0in /  0.0mm 65 W/m2
09:49 52.7 °F /  11.5 °C 51.8 °F /  11 °C 29.6in /  1002.7hPa Calm   1mph /  1.6km/h 97% 0in /  0.0mm 83 W/m2
09:54 52.9 °F /  11.6 °C 52 °F /  11.1 °C 29.6in /  1002.4hPa ENE 0.9mph /  1.4km/h 3mph /  4.8km/h 97% 0in /  0.0mm 77 W/m2
09:59 53.1 °F /  11.7 °C 52.2 °F /  11.2 °C 29.6in /  1002.7hPa Calm     97% 0in /  0.0mm 84 W/m2
10:04 53.2 °F /  11.8 °C 52.3 °F /  11.3 °C 29.6in /  1002.4hPa ENE 2mph /  3.2km/h 3mph /  4.8km/h 97% 0in /  0.0mm 123 W/m2
10:09 53.4 °F /  11.9 °C 52.5 °F /  11.4 °C 29.6in /  1002.4hPa Calm   1mph /  1.6km/h 97% 0in /  0.0mm 127 W/m2
10:14 53.8 °F /  12.1 °C 52.9 °F /  11.6 °C 29.6in /  1002.4hPa NE 2mph /  3.2km/h 3mph /  4.8km/h 97% 0in /  0.0mm 141 W/m2
10:19 54 °F /  12.2 °C 53.1 °F /  11.7 °C 29.6in /  1002.4hPa NE 0.9mph /  1.4km/h 1mph /  1.6km/h 97% 0in /  0.0mm 137 W/m2
10:24 54.3 °F /  12.4 °C 53.4 °F /  11.9 °C 29.6in /  1002.4hPa East 2.9mph /  4.7km/h 5mph /  8km/h 97% 0in /  0.0mm 121 W/m2
10:29 54.7 °F /  12.6 °C 53.6 °F /  12 °C 29.6in /  1002.4hPa NE 2mph /  3.2km/h 3mph /  4.8km/h 96% 0in /  0.0mm 132 W/m2
10:34 54.9 °F /  12.7 °C 53.8 °F /  12.1 °C 29.6in /  1002.0hPa ESE 2mph /  3.2km/h 3mph /  4.8km/h 96% 0in /  0.0mm 123 W/m2
10:39 55 °F /  12.8 °C 53.6 °F /  12 °C 29.6in /  1002.0hPa NE 2mph /  3.2km/h 4mph /  6.4km/h 95% 0in /  0.0mm 137 W/m2
10:44 55.6 °F /  13.1 °C 54 °F /  12.2 °C 29.6in /  1002.0hPa East 0.9mph /  1.4km/h 3mph /  4.8km/h 94% 0in /  0.0mm 155 W/m2
10:49 55.8 °F /  13.2 °C 53.8 °F /  12.1 °C 29.6in /  1002.0hPa East 2.9mph /  4.7km/h 5mph /  8km/h 93% 0in /  0.0mm 183 W/m2
10:54 56.1 °F /  13.4 °C 53.8 °F /  12.1 °C 29.6in /  1002.4hPa ENE 2mph /  3.2km/h 6mph /  9.7km/h 92% 0in /  0.0mm 123 W/m2
10:59 56.5 °F /  13.6 °C 54.1 °F /  12.3 °C 29.6in /  1002.0hPa ENE 4.9mph /  7.9km/h 6mph /  9.7km/h 92% 0in /  0.0mm 109 W/m2
11:04 56.5 °F /  13.6 °C 54 °F /  12.2 °C 29.6in /  1002.0hPa SE 0.9mph /  1.4km/h 4mph /  6.4km/h 91% 0in /  0.0mm 76 W/m2
11:09 56.5 °F /  13.6 °C 54 °F /  12.2 °C 29.6in /  1002.0hPa ENE 2mph /  3.2km/h 6mph /  9.7km/h 91% 0in /  0.0mm 51 W/m2
11:14 56.5 °F /  13.6 °C 54 °F /  12.2 °C 29.6in /  1002.4hPa ENE 0.9mph /  1.4km/h 3mph /  4.8km/h 91% 0in /  0.0mm 81 W/m2
11:19 56.5 °F /  13.6 °C 53.6 °F /  12 °C 29.6in /  1002.0hPa ENE 2.9mph /  4.7km/h 6mph /  9.7km/h 90% 0in /  0.0mm 47 W/m2
11:24 56.5 °F /  13.6 °C 53.6 °F /  12 °C 29.6in /  1002.0hPa ENE 2mph /  3.2km/h 4mph /  6.4km/h 90% 0in /  0.0mm 53 W/m2
11:29 56.5 °F /  13.6 °C 53.6 °F /  12 °C 29.6in /  1002.0hPa ENE 4mph /  6.4km/h 5mph /  8km/h 90% 0in /  0.0mm 60 W/m2
11:34 56.7 °F /  13.7 °C 53.8 °F /  12.1 °C 29.6in /  1002.0hPa ENE 0.9mph /  1.4km/h 4mph /  6.4km/h 90% 0in /  0.0mm 53 W/m2
11:39 56.7 °F /  13.7 °C 53.8 °F /  12.1 °C 29.6in /  1002.4hPa East 2mph /  3.2km/h 4mph /  6.4km/h 90% 0in /  0.0mm 63 W/m2
11:44 56.8 °F /  13.8 °C 54 °F /  12.2 °C 29.6in /  1002.4hPa NE 2mph /  3.2km/h 3mph /  4.8km/h 90% 0in /  0.0mm 77 W/m2
11:49 56.8 °F /  13.8 °C 54 °F /  12.2 °C 29.6in /  1002.0hPa Calm   3mph /  4.8km/h 90% 0in /  0.0mm 63 W/m2
11:54 56.8 °F /  13.8 °C 54.3 °F /  12.4 °C 29.6in /  1002.0hPa Calm   1mph /  1.6km/h 91% 0.01in /  0.2mm 49 W/m2
11:59 56.8 °F /  13.8 °C 54.3 °F /  12.4 °C 29.6in /  1002.0hPa Calm   3mph /  4.8km/h 91% 0.02in /  0.5mm 47 W/m2
12:04 56.8 °F /  13.8 °C 54.5 °F /  12.5 °C 29.6in /  1002.0hPa Calm     92% 0.03in /  0.8mm 47 W/m2
12:09 56.8 °F /  13.8 °C 54.5 °F /  12.5 °C 29.6in /  1002.0hPa Calm   1mph /  1.6km/h 92% 0.04in /  1.0mm 53 W/m2
12:14 56.7 °F /  13.7 °C 54.3 °F /  12.4 °C 29.6in /  1002.0hPa NNE 0.9mph /  1.4km/h 2mph /  3.2km/h 92% 0.05in /  1.3mm 49 W/m2
12:19 56.7 °F /  13.7 °C 54.7 °F /  12.6 °C 29.6in /  1002.0hPa East 0.9mph /  1.4km/h 1mph /  1.6km/h 93% 0.06in /  1.5mm 46 W/m2
12:24 56.7 °F /  13.7 °C 54.7 °F /  12.6 °C 29.6in /  1001.7hPa ENE 2.9mph /  4.7km/h 4mph /  6.4km/h 93% 0.07in /  1.8mm 46 W/m2
12:29 56.5 °F /  13.6 °C 54.5 °F /  12.5 °C 29.6in /  1001.7hPa NE 2.9mph /  4.7km/h 3mph /  4.8km/h 93% 0.08in /  2.0mm 40 W/m2
12:34 56.5 °F /  13.6 °C 54.5 °F /  12.5 °C 29.6in /  1001.7hPa ESE 0.9mph /  1.4km/h 4mph /  6.4km/h 93% 0.09in /  2.3mm 49 W/m2
12:39 56.3 °F /  13.5 °C 54.3 °F /  12.4 °C 29.6in /  1001.7hPa ENE 2.9mph /  4.7km/h 3mph /  4.8km/h 93% 0.11in /  2.8mm 56 W/m2
12:44 56.3 °F /  13.5 °C 54.7 °F /  12.6 °C 29.6in /  1001.4hPa ENE 4mph /  6.4km/h 4mph /  6.4km/h 94% 0.12in /  3.0mm 67 W/m2
12:49 56.1 °F /  13.4 °C 54.5 °F /  12.5 °C 29.6in /  1001.4hPa East 4mph /  6.4km/h 6mph /  9.7km/h 94% 0.11in /  2.8mm 54 W/m2
12:54 55.9 °F /  13.3 °C 54.3 °F /  12.4 °C 29.6in /  1001.4hPa NE 0.9mph /  1.4km/h 5mph /  8km/h 94% 0.12in /  3.0mm 44 W/m2
12:59 56.1 °F /  13.4 °C 54.5 °F /  12.5 °C 29.6in /  1001.4hPa East 2mph /  3.2km/h 2mph /  3.2km/h 94% 0.11in /  2.8mm 49 W/m2
13:04 56.1 °F /  13.4 °C 54.5 °F /  12.5 °C 29.6in /  1001.7hPa East 0.9mph /  1.4km/h 3mph /  4.8km/h 94% 0.1in /  2.5mm 63 W/m2
13:09 56.1 °F /  13.4 °C 54.5 °F /  12.5 °C 29.6in /  1001.4hPa Calm   2mph /  3.2km/h 94% 0.09in /  2.3mm 76 W/m2
13:14 56.1 °F /  13.4 °C 54.7 °F /  12.6 °C 29.6in /  1001.4hPa East 2mph /  3.2km/h 4mph /  6.4km/h 95% 0.09in /  2.3mm 116 W/m2
13:19 56.5 °F /  13.6 °C 55 °F /  12.8 °C 29.6in /  1001.0hPa NE 2mph /  3.2km/h 3mph /  4.8km/h 95% 0.08in /  2.0mm 125 W/m2
13:25 56.5 °F /  13.6 °C 55 °F /  12.8 °C 29.6in /  1000.7hPa NNE 2mph /  3.2km/h 8mph /  12.9km/h 95% 0.07in /  1.8mm 105 W/m2
13:30 56.7 °F /  13.7 °C 55.2 °F /  12.9 °C 29.6in /  1001.4hPa ENE 2mph /  3.2km/h 5mph /  8km/h 95% 0.06in /  1.5mm 121 W/m2
13:35 56.7 °F /  13.7 °C 55.2 °F /  12.9 °C 29.6in /  1001.4hPa Calm   1mph /  1.6km/h 95% 0.05in /  1.3mm 149 W/m2
13:40 56.8 °F /  13.8 °C 55.4 °F /  13 °C 29.6in /  1001.4hPa WNW 0.9mph /  1.4km/h 4mph /  6.4km/h 95% 0.03in /  0.8mm 128 W/m2
13:45 56.8 °F /  13.8 °C 55.4 °F /  13 °C 29.6in /  1001.4hPa North 2mph /  3.2km/h 2mph /  3.2km/h 95% 0.02in /  0.5mm 121 W/m2
13:50 57 °F /  13.9 °C 55.2 °F /  12.9 °C 29.6in /  1001.4hPa North 0.9mph /  1.4km/h 4mph /  6.4km/h 94% 0.02in /  0.5mm 97 W/m2
13:55 57 °F /  13.9 °C 55.2 °F /  12.9 °C 29.6in /  1001.7hPa Calm   4mph /  6.4km/h 94% 0.02in /  0.5mm 113 W/m2
14:00 57.2 °F /  14 °C 55.4 °F /  13 °C 29.6in /  1001.7hPa NNE 0.9mph /  1.4km/h 3mph /  4.8km/h 94% 0.02in /  0.5mm 58 W/m2
14:05 57.4 °F /  14.1 °C 55.6 °F /  13.1 °C 29.6in /  1001.7hPa NE 2mph /  3.2km/h 5mph /  8km/h 94% 0.01in /  0.2mm 102 W/m2
14:10 57.4 °F /  14.1 °C 55.4 °F /  13 °C 29.6in /  1001.4hPa NW 2.9mph /  4.7km/h 6mph /  9.7km/h 93% 0.01in /  0.2mm 146 W/m2
14:15 57.6 °F /  14.2 °C 55.6 °F /  13.1 °C 29.6in /  1001.4hPa Calm   4mph /  6.4km/h 93% 0.01in /  0.2mm 116 W/m2
14:20 57.7 °F /  14.3 °C 55.8 °F /  13.2 °C 29.6in /  1001.4hPa ENE 2mph /  3.2km/h 5mph /  8km/h 93% 0in /  0.0mm 132 W/m2
14:25 57.7 °F /  14.3 °C 55.8 °F /  13.2 °C 29.6in /  1001.4hPa NNW 2.9mph /  4.7km/h 4mph /  6.4km/h 93% 0in /  0.0mm 113 W/m2
14:30 57.7 °F /  14.3 °C 55.4 °F /  13 °C 29.6in /  1001.4hPa NE 2mph /  3.2km/h 8mph /  12.9km/h 92% 0in /  0.0mm 132 W/m2
14:35 57.9 °F /  14.4 °C 55.6 °F /  13.1 °C 29.6in /  1001.4hPa NE 6mph /  9.7km/h 6mph /  9.7km/h 92% 0in /  0.0mm 134 W/m2
14:40 57.9 °F /  14.4 °C 55.6 °F /  13.1 °C 29.6in /  1001.4hPa NE 0.9mph /  1.4km/h 4mph /  6.4km/h 92% 0in /  0.0mm 118 W/m2
14:45 57.9 °F /  14.4 °C 55.6 °F /  13.1 °C 29.6in /  1001.4hPa NW 2mph /  3.2km/h 2mph /  3.2km/h 92% 0in /  0.0mm 83 W/m2
14:50 57.9 °F /  14.4 °C 55.6 °F /  13.1 °C 29.6in /  1001.4hPa Calm   2mph /  3.2km/h 92% 0in /  0.0mm 49 W/m2
14:55 57.9 °F /  14.4 °C 55.6 °F /  13.1 °C 29.6in /  1001.4hPa East 0.9mph /  1.4km/h 2mph /  3.2km/h 92% 0in /  0.0mm 74 W/m2
15:00 57.9 °F /  14.4 °C 55.2 °F /  12.9 °C 29.6in /  1001.4hPa NE 0.9mph /  1.4km/h 2mph /  3.2km/h 91% 0in /  0.0mm 58 W/m2
15:05 57.7 °F /  14.3 °C 55.4 °F /  13 °C 29.6in /  1001.0hPa Calm   3mph /  4.8km/h 92% 0in /  0.0mm 58 W/m2
15:10 57.7 °F /  14.3 °C 55.4 °F /  13 °C 29.6in /  1001.4hPa NE 2.9mph /  4.7km/h 4mph /  6.4km/h 92% 0.01in /  0.2mm 49 W/m2
15:15 57.6 °F /  14.2 °C 55.2 °F /  12.9 °C 29.6in /  1001.4hPa WNW 2.9mph /  4.7km/h 3mph /  4.8km/h 92% 0.04in /  1.0mm 42 W/m2
15:20 57.4 °F /  14.1 °C 55 °F /  12.8 °C 29.6in /  1001.4hPa North 0.9mph /  1.4km/h 5mph /  8km/h 92% 0.07in /  1.8mm 123 W/m2
15:25 57.4 °F /  14.1 °C 55.4 °F /  13 °C 29.6in /  1001.4hPa WNW 2.9mph /  4.7km/h 5mph /  8km/h 93% 0.07in /  1.8mm 158 W/m2
15:30 57.4 °F /  14.1 °C 55.4 °F /  13 °C 29.6in /  1001.4hPa ESE 4mph /  6.4km/h 4mph /  6.4km/h 93% 0.08in /  2.0mm 200 W/m2
15:35 57.7 °F /  14.3 °C 55.8 °F /  13.2 °C 29.6in /  1001.4hPa NW 4mph /  6.4km/h 6mph /  9.7km/h 93% 0.08in /  2.0mm 431 W/m2
15:40 57.7 °F /  14.3 °C 55.4 °F /  13 °C 29.6in /  1001.4hPa West 6mph /  9.7km/h 10mph /  16.1km/h 92% 0.08in /  2.0mm 244 W/m2
15:45 58.1 °F /  14.5 °C 55.4 °F /  13 °C 29.6in /  1001.4hPa SW 2mph /  3.2km/h 9mph /  14.5km/h 91% 0.08in /  2.0mm 564 W/m2
15:50 58.3 °F /  14.6 °C 55.6 °F /  13.1 °C 29.6in /  1001.4hPa NW 0.9mph /  1.4km/h 3mph /  4.8km/h 91% 0.08in /  2.0mm 276 W/m2
15:55 58.8 °F /  14.9 °C 56.1 °F /  13.4 °C 29.6in /  1001.4hPa NW 2mph /  3.2km/h 7mph /  11.3km/h 91% 0.08in /  2.0mm 487 W/m2
16:00 58.8 °F /  14.9 °C 55.9 °F /  13.3 °C 29.6in /  1001.4hPa West 2mph /  3.2km/h 10mph /  16.1km/h 90% 0.08in /  2.0mm 100 W/m2
16:05 58.8 °F /  14.9 °C 55.9 °F /  13.3 °C 29.6in /  1001.4hPa ENE 2mph /  3.2km/h 4mph /  6.4km/h 90% 0.08in /  2.0mm 174 W/m2
16:10 59.2 °F /  15.1 °C 56.3 °F /  13.5 °C 29.6in /  1001.4hPa NNW 4mph /  6.4km/h 7mph /  11.3km/h 90% 0.07in /  1.8mm 489 W/m2
16:15 59.2 °F /  15.1 °C 56.3 °F /  13.5 °C 29.6in /  1001.4hPa NW 2.9mph /  4.7km/h 4mph /  6.4km/h 90% 0.04in /  1.0mm 116 W/m2
16:20 59 °F /  15 °C 55.8 °F /  13.2 °C 29.6in /  1001.4hPa North 2mph /  3.2km/h 3mph /  4.8km/h 89% 0.01in /  0.2mm 128 W/m2
16:25 59.2 °F /  15.1 °C 55.9 °F /  13.3 °C 29.6in /  1001.4hPa Calm   5mph /  8km/h 89% 0.01in /  0.2mm 197 W/m2
16:30 59.5 °F /  15.3 °C 56.3 °F /  13.5 °C 29.6in /  1001.4hPa ENE 0.9mph /  1.4km/h 5mph /  8km/h 89% 0in /  0.0mm 448 W/m2
16:35 59.7 °F /  15.4 °C 55.8 °F /  13.2 °C 29.6in /  1001.4hPa NW 0.9mph /  1.4km/h 6mph /  9.7km/h 87% 0in /  0.0mm 118 W/m2
16:40 59.7 °F /  15.4 °C 55.6 °F /  13.1 °C 29.6in /  1001.4hPa ENE 2mph /  3.2km/h 7mph /  11.3km/h 86% 0in /  0.0mm 156 W/m2
16:45 59.5 °F /  15.3 °C 55.4 °F /  13 °C 29.6in /  1001.4hPa NE 2mph /  3.2km/h 7mph /  11.3km/h 86% 0in /  0.0mm 362 W/m2
16:50 59.7 °F /  15.4 °C 55.6 °F /  13.1 °C 29.6in /  1001.4hPa WNW 2mph /  3.2km/h 3mph /  4.8km/h 86% 0in /  0.0mm 139 W/m2
16:55 59.9 °F /  15.5 °C 55.8 °F /  13.2 °C 29.6in /  1001.4hPa Calm   5mph /  8km/h 86% 0in /  0.0mm 357 W/m2
17:00 60.1 °F /  15.6 °C 56.1 °F /  13.4 °C 29.6in /  1001.4hPa Calm   3mph /  4.8km/h 87% 0in /  0.0mm 348 W/m2
17:05 60.3 °F /  15.7 °C 56.1 °F /  13.4 °C 29.6in /  1001.0hPa SSW 0.9mph /  1.4km/h 2mph /  3.2km/h 86% 0in /  0.0mm 329 W/m2
17:10 60.1 °F /  15.6 °C 55.2 °F /  12.9 °C 29.6in /  1001.0hPa NNE 2mph /  3.2km/h 5mph /  8km/h 84% 0in /  0.0mm 83 W/m2
17:15 59.9 °F /  15.5 °C 55.4 °F /  13 °C 29.6in /  1001.0hPa Calm   1mph /  1.6km/h 85% 0in /  0.0mm 160 W/m2
17:20 59.5 °F /  15.3 °C 55 °F /  12.8 °C 29.6in /  1001.0hPa SSW 2mph /  3.2km/h 5mph /  8km/h 85% 0in /  0.0mm 153 W/m2
17:25 59.5 °F /  15.3 °C 55 °F /  12.8 °C 29.6in /  1001.0hPa Calm     85% 0in /  0.0mm 188 W/m2
17:30 59.5 °F /  15.3 °C 54.7 °F /  12.6 °C 29.6in /  1001.0hPa East 0.9mph /  1.4km/h 5mph /  8km/h 84% 0in /  0.0mm 69 W/m2
17:35 59.5 °F /  15.3 °C 54.3 °F /  12.4 °C 29.6in /  1001.0hPa ESE 0.9mph /  1.4km/h 5mph /  8km/h 83% 0in /  0.0mm 144 W/m2
17:40 59.5 °F /  15.3 °C 54.3 °F /  12.4 °C 29.6in /  1001.0hPa North 2mph /  3.2km/h 4mph /  6.4km/h 83% 0in /  0.0mm 243 W/m2
17:45 59.5 °F /  15.3 °C 54.3 °F /  12.4 °C 29.6in /  1001.0hPa West 2mph /  3.2km/h 5mph /  8km/h 83% 0in /  0.0mm 211 W/m2
17:50 59.5 °F /  15.3 °C 54 °F /  12.2 °C 29.6in /  1001.0hPa Calm   1mph /  1.6km/h 82% 0in /  0.0mm 63 W/m2
17:55 59.5 °F /  15.3 °C 54.3 °F /  12.4 °C 29.6in /  1001.0hPa NNE 0.9mph /  1.4km/h 2mph /  3.2km/h 83% 0in /  0.0mm 86 W/m2
18:00 59.2 °F /  15.1 °C 54.7 °F /  12.6 °C 29.6in /  1001.0hPa WNW 0.9mph /  1.4km/h 2mph /  3.2km/h 85% 0in /  0.0mm 58 W/m2
18:05 58.6 °F /  14.8 °C 54.1 °F /  12.3 °C 29.6in /  1001.0hPa SE 2mph /  3.2km/h 2mph /  3.2km/h 85% 0in /  0.0mm 39 W/m2
18:10 58.3 °F /  14.6 °C 54.1 °F /  12.3 °C 29.6in /  1001.0hPa Calm   1mph /  1.6km/h 86% 0in /  0.0mm 32 W/m2
18:15 57.7 °F /  14.3 °C 54 °F /  12.2 °C 29.6in /  1001.0hPa Calm   2mph /  3.2km/h 87% 0in /  0.0mm 62 W/m2
18:20 57.6 °F /  14.2 °C 54.3 °F /  12.4 °C 29.6in /  1001.0hPa Calm   1mph /  1.6km/h 89% 0in /  0.0mm 46 W/m2
18:25 57.4 °F /  14.1 °C 54.1 °F /  12.3 °C 29.6in /  1001.4hPa Calm   2mph /  3.2km/h 89% 0in /  0.0mm 42 W/m2
18:30 57 °F /  13.9 °C 54.1 °F /  12.3 °C 29.6in /  1001.4hPa Calm   1mph /  1.6km/h 90% 0in /  0.0mm 40 W/m2
18:35 57 °F /  13.9 °C 54.5 °F /  12.5 °C 29.6in /  1001.4hPa Calm   2mph /  3.2km/h 91% 0in /  0.0mm 28 W/m2
18:40 56.8 °F /  13.8 °C 54.3 °F /  12.4 °C 29.6in /  1001.4hPa Calm     91% 0in /  0.0mm 37 W/m2
18:45 56.7 °F /  13.7 °C 54.1 °F /  12.3 °C 29.6in /  1001.4hPa West 0.9mph /  1.4km/h 2mph /  3.2km/h 91% 0in /  0.0mm 26 W/m2
18:50 56.7 °F /  13.7 °C 54.1 °F /  12.3 °C 29.6in /  1001.4hPa Calm   1mph /  1.6km/h 91% 0in /  0.0mm 18 W/m2
18:55 56.5 °F /  13.6 °C 54 °F /  12.2 °C 29.6in /  1001.4hPa WNW 0.9mph /  1.4km/h 2mph /  3.2km/h 91% 0in /  0.0mm 14 W/m2
19:00 56.3 °F /  13.5 °C 53.8 °F /  12.1 °C 29.6in /  1001.4hPa Calm   3mph /  4.8km/h 91% 0in /  0.0mm 12 W/m2
19:05 55.9 °F /  13.3 °C 53.6 °F /  12 °C 29.6in /  1001.4hPa Calm   1mph /  1.6km/h 92% 0in /  0.0mm 7 W/m2
19:10 55.8 °F /  13.2 °C 53.2 °F /  11.8 °C 29.6in /  1001.4hPa Calm   3mph /  4.8km/h 91% 0in /  0.0mm 5 W/m2
19:15 55.4 °F /  13 °C 52.9 °F /  11.6 °C 29.6in /  1001.4hPa Calm     91% 0in /  0.0mm 0 W/m2
19:25 54.9 °F /  12.7 °C 52.3 °F /  11.3 °C 29.6in /  1001.4hPa Calm     91% 0in /  0.0mm 0 W/m2
19:30 54.7 °F /  12.6 °C 52.2 °F /  11.2 °C 29.6in /  1001.4hPa Calm     91% 0in /  0.0mm 0 W/m2
19:35 54.3 °F /  12.4 °C 52 °F /  11.1 °C 29.6in /  1001.4hPa NE 0.9mph /  1.4km/h 2mph /  3.2km/h 92% 0in /  0.0mm 0 W/m2
19:40 54 °F /  12.2 °C 51.6 °F /  10.9 °C 29.6in /  1001.7hPa North 0.9mph /  1.4km/h 6mph /  9.7km/h 92% 0in /  0.0mm 0 W/m2
19:45 54.3 °F /  12.4 °C 51.8 °F /  11 °C 29.6in /  1001.7hPa WSW 2mph /  3.2km/h 6mph /  9.7km/h 91% 0in /  0.0mm 0 W/m2
19:50 54.5 °F /  12.5 °C 51.3 °F /  10.7 °C 29.6in /  1001.7hPa WNW 2.9mph /  4.7km/h 7mph /  11.3km/h 89% 0in /  0.0mm 0 W/m2
19:55 54.9 °F /  12.7 °C 51.4 °F /  10.8 °C 29.6in /  1001.7hPa East 2mph /  3.2km/h 2mph /  3.2km/h 88% 0in /  0.0mm 0 W/m2
20:00 55 °F /  12.8 °C 51.3 °F /  10.7 °C 29.6in /  1001.7hPa WSW 0.9mph /  1.4km/h 6mph /  9.7km/h 87% 0in /  0.0mm 0 W/m2
20:05 54.9 °F /  12.7 °C 51.1 °F /  10.6 °C 29.6in /  1001.7hPa Calm   3mph /  4.8km/h 87% 0in /  0.0mm 0 W/m2
20:10 54.7 °F /  12.6 °C 51.3 °F /  10.7 °C 29.6in /  1001.7hPa South 2mph /  3.2km/h 2mph /  3.2km/h 88% 0in /  0.0mm 0 W/m2
20:15 54.3 °F /  12.4 °C 50.5 °F /  10.3 °C 29.6in /  1001.7hPa Calm   2mph /  3.2km/h 87% 0in /  0.0mm 0 W/m2
20:20 54.3 °F /  12.4 °C 50.9 °F /  10.5 °C 29.6in /  1001.7hPa Calm   1mph /  1.6km/h 88% 0in /  0.0mm 0 W/m2
20:25 54.1 °F /  12.3 °C 50.9 °F /  10.5 °C 29.6in /  1002.0hPa Calm     89% 0in /  0.0mm 0 W/m2
20:30 53.6 °F /  12 °C 50.4 °F /  10.2 °C 29.6in /  1002.0hPa Calm   2mph /  3.2km/h 89% 0in /  0.0mm 0 W/m2
20:35 53.2 °F /  11.8 °C 50.4 °F /  10.2 °C 29.6in /  1002.0hPa Calm     90% 0in /  0.0mm 0 W/m2
20:40 53.1 °F /  11.7 °C 50.2 °F /  10.1 °C 29.6in /  1002.0hPa Calm   1mph /  1.6km/h 90% 0in /  0.0mm 0 W/m2
20:45 52.5 °F /  11.4 °C 49.6 °F /  9.8 °C 29.6in /  1002.0hPa Calm   1mph /  1.6km/h 90% 0in /  0.0mm 0 W/m2
20:50 52.3 °F /  11.3 °C 49.8 °F /  9.9 °C 29.6in /  1002.0hPa SSE 0.9mph /  1.4km/h 1mph /  1.6km/h 91% 0in /  0.0mm 0 W/m2
20:55 52.2 °F /  11.2 °C 49.6 °F /  9.8 °C 29.6in /  1002.0hPa SE 0.9mph /  1.4km/h 1mph /  1.6km/h 91% 0in /  0.0mm 0 W/m2
21:01 52.2 °F /  11.2 °C 49.8 °F /  9.9 °C 29.6in /  1002.0hPa ENE 0.9mph /  1.4km/h 2mph /  3.2km/h 92% 0in /  0.0mm 0 W/m2
21:11 52 °F /  11.1 °C 49.6 °F /  9.8 °C 29.6in /  1001.7hPa Calm     92% 0in /  0.0mm 0 W/m2
21:16 51.6 °F /  10.9 °C 49.5 °F /  9.7 °C 29.6in /  1001.7hPa Calm   3mph /  4.8km/h 92% 0in /  0.0mm 0 W/m2
21:21 51.4 °F /  10.8 °C 49.3 °F /  9.6 °C 29.6in /  1001.7hPa Calm     92% 0in /  0.0mm 0 W/m2
21:26 51.3 °F /  10.7 °C 49.3 °F /  9.6 °C 29.6in /  1001.7hPa Calm     93% 0in /  0.0mm 0 W/m2
21:31 51.3 °F /  10.7 °C 49.3 °F /  9.6 °C 29.6in /  1001.7hPa West 0.9mph /  1.4km/h 1mph /  1.6km/h 93% 0in /  0.0mm 0 W/m2
21:36 51.1 °F /  10.6 °C 49.1 °F /  9.5 °C 29.6in /  1001.7hPa Calm     93% 0in /  0.0mm 0 W/m2
21:41 50.9 °F /  10.5 °C 49.3 °F /  9.6 °C 29.6in /  1001.7hPa West 0.9mph /  1.4km/h 2mph /  3.2km/h 94% 0in /  0.0mm 0 W/m2
21:46 50.7 °F /  10.4 °C 49.1 °F /  9.5 °C 29.6in /  1001.7hPa Calm     94% 0in /  0.0mm 0 W/m2
21:51 50.5 °F /  10.3 °C 48.9 °F /  9.4 °C 29.6in /  1001.7hPa Calm   2mph /  3.2km/h 94% 0in /  0.0mm 0 W/m2
21:56 50.5 °F /  10.3 °C 48.9 °F /  9.4 °C 29.6in /  1001.7hPa Calm   4mph /  6.4km/h 94% 0in /  0.0mm 0 W/m2
22:01 50.5 °F /  10.3 °C 48.9 °F /  9.4 °C 29.6in /  1001.7hPa ESE 2mph /  3.2km/h 2mph /  3.2km/h 94% 0in /  0.0mm 0 W/m2
22:06 50.4 °F /  10.2 °C 48.7 °F /  9.3 °C 29.6in /  1001.7hPa Calm   4mph /  6.4km/h 94% 0in /  0.0mm 0 W/m2
22:11 50.4 °F /  10.2 °C 48.7 °F /  9.3 °C 29.6in /  1001.7hPa ESE 2mph /  3.2km/h 3mph /  4.8km/h 94% 0in /  0.0mm 0 W/m2
22:16 50.2 °F /  10.1 °C 48.6 °F /  9.2 °C 29.6in /  1001.7hPa ESE 0.9mph /  1.4km/h 2mph /  3.2km/h 94% 0in /  0.0mm 0 W/m2
22:21 50.2 °F /  10.1 °C 48.7 °F /  9.3 °C 29.6in /  1001.4hPa Calm   1mph /  1.6km/h 95% 0in /  0.0mm 0 W/m2
22:26 50 °F /  10 °C 48.6 °F /  9.2 °C 29.6in /  1001.4hPa Calm   2mph /  3.2km/h 95% 0in /  0.0mm 0 W/m2
22:31 49.8 °F /  9.9 °C 48.4 °F /  9.1 °C 29.6in /  1001.4hPa ESE 2mph /  3.2km/h 2mph /  3.2km/h 95% 0in /  0.0mm 0 W/m2
22:36 49.8 °F /  9.9 °C 48.4 °F /  9.1 °C 29.6in /  1001.4hPa ESE 0.9mph /  1.4km/h 3mph /  4.8km/h 95% 0in /  0.0mm 0 W/m2
22:41 49.8 °F /  9.9 °C 48.4 °F /  9.1 °C 29.6in /  1001.4hPa Calm   1mph /  1.6km/h 95% 0in /  0.0mm 0 W/m2
22:46 49.6 °F /  9.8 °C 48.2 °F /  9 °C 29.6in /  1001.4hPa Calm   1mph /  1.6km/h 95% 0in /  0.0mm 0 W/m2
22:51 49.6 °F /  9.8 °C 48.2 °F /  9 °C 29.6in /  1001.4hPa Calm     95% 0in /  0.0mm 0 W/m2
22:56 49.3 °F /  9.6 °C 47.8 °F /  8.8 °C 29.6in /  1001.4hPa Calm     95% 0in /  0.0mm 0 W/m2
23:01 49.1 °F /  9.5 °C 47.5 °F /  8.6 °C 29.6in /  1001.0hPa Calm     94% 0in /  0.0mm 0 W/m2
23:06 48.7 °F /  9.3 °C 47.3 °F /  8.5 °C 29.6in /  1001.4hPa Calm     95% 0in /  0.0mm 0 W/m2
23:11 48.6 °F /  9.2 °C 47.1 °F /  8.4 °C 29.6in /  1001.0hPa Calm   1mph /  1.6km/h 95% 0in /  0.0mm 0 W/m2
23:16 48.6 °F /  9.2 °C 47.1 °F /  8.4 °C 29.6in /  1001.0hPa Calm     95% 0in /  0.0mm 0 W/m2
23:21 48.4 °F /  9.1 °C 46.9 °F /  8.3 °C 29.6in /  1001.0hPa Calm   1mph /  1.6km/h 95% 0in /  0.0mm 0 W/m2
23:26 48.2 °F /  9 °C 46.8 °F /  8.2 °C 29.6in /  1001.0hPa Calm     95% 0in /  0.0mm 0 W/m2
23:31 48 °F /  8.9 °C 46.6 °F /  8.1 °C 29.6in /  1000.7hPa Calm     95% 0in /  0.0mm 0 W/m2
23:36 48 °F /  8.9 °C 46.6 °F /  8.1 °C 29.6in /  1000.7hPa Calm     95% 0in /  0.0mm 0 W/m2
23:42 48 °F /  8.9 °C 46.6 °F /  8.1 °C 29.6in /  1000.7hPa Calm     95% 0in /  0.0mm 0 W/m2
23:47 47.8 °F /  8.8 °C 46.4 °F /  8 °C 29.6in /  1000.7hPa Calm     95% 0in /  0.0mm 0 W/m2
23:52 47.8 °F /  8.8 °C 46.4 °F /  8 °C 29.6in /  1000.7hPa Calm     95% 0in /  0.0mm 0 W/m2
23:57 47.8 °F /  8.8 °C 46.8 °F /  8.2 °C 29.5in /  1000.3hPa Calm     96% 0in /  0.0mm 0 W/m2
Juneau County Weather
Compliments of Weather Underground - 2 mb